Terminal Aerodrome Forecast
Issued by NWS Boston, MA

Home | Current Version | Previous Version | Text Only | Print | Product List | Glossary On
Versions: 1 2 3 4 5 6 7 8 9 10 11 12 13 14 15 16 17 18 19 20 21 22 23 24 25 26 27 28 29 30 31 32 33 34 35 36
000
FTUS41 KBOX 222336
TAFBDL
TAF
KBDL 222336Z 2300/2406 21007KT P6SM FEW090 SCT250
     FM230900 19005KT 5SM BR SCT250
     FM231100 20007KT P6SM SCT250
     FM231500 21011KT P6SM SCT250
     FM232000 20013KT P6SM BKN040
     FM240000 20009KT P6SM BKN040
     FM240200 20007KT 5SM TSRA BKN040CB
     FM240500 VRB03KT P6SM -SHRA BKN040=

USA.gov is the U.S. government's official web portal to all federal, state and local government web resources and services.